Hovedside
METAR-TAF:

METAR-TAF

Lufthavner :

Teheran, Iran

breddegrad: 35-41N, lengdegrad: 051-21E, høyde over havet: 1204 m

Gjeldene værobservasjon

Denne rapporten ble laget for 22 minutter siden, klokken 17:30 UTC
Vind 4 kt fra Nord
Temperatur 32°C
Luftfuktighet 10%
Trykk 1007 hPa
Sikt 10 km eller mer
ingen skyer under 1500 m og ingen bygeskyer

METAR: OIII 231730Z 35004KT CAVOK 32/M03 Q1007 A2975

Tid: 22:22 (17:52 UTC)

Varsel

Denne rapporten ble laget for 22 minutter siden, klokken 17:30 UTC
Varsel gyldig fra 23. klokken 18 UTC til 24. klokken 24 UTC
Vind 8 kt fra Vest-sørvest
Sikt: 8000 m
Få skyer i en høyde av 4500 ft

TAF: OIII 231730Z 2318/2424 24004MPS 8000 FEW045

Værobservasjoner og værvarsel for over 4000 flyplasser (METAR- og TAF-rapporter).

Tilgjengelige stasjoner er representert av de røde og gule prikkene på kartet.

Hold musepekeren over prikken for å se navnet på stasjonen.

Klikk så for å se værobservasjoner og -varsler.

For å forandre kartet kan du klikke på den grønne knappen med svart kryss for å zoome inn, på den grønne knappen med strek for å zoome ut, eller på de grønne pilene for å se tilstøtende kart.


METAR-TAF: